createdAt,value
2023-04-03T00:00:09.899Z,2.89
2023-04-03T00:01:09.917Z,2.89
2023-04-03T00:02:10.009Z,2.89
2023-04-03T00:03:09.978Z,2.92
2023-04-03T00:04:09.985Z,2.95
2023-04-03T00:05:09.982Z,2.95
2023-04-03T00:06:10.005Z,2.95
2023-04-03T00:07:10.049Z,2.95
2023-04-03T00:08:10.025Z,2.93
2023-04-03T00:09:10.652Z,2.92
2023-04-03T00:10:10.070Z,2.92
2023-04-03T00:11:10.094Z,2.92
2023-04-03T00:12:10.134Z,2.90
2023-04-03T00:13:10.140Z,2.89
2023-04-03T00:14:10.145Z,2.90
2023-04-03T00:15:10.166Z,2.90
2023-04-03T00:16:10.180Z,2.89
2023-04-03T00:17:10.310Z,2.90
2023-04-03T00:18:10.217Z,2.87
2023-04-03T00:19:10.234Z,2.90
2023-04-03T00:20:10.248Z,2.89
2023-04-03T00:21:10.270Z,2.89
2023-04-03T00:22:10.319Z,2.90
2023-04-03T00:23:10.311Z,2.90
2023-04-03T00:24:10.318Z,2.92
2023-04-03T00:25:10.343Z,2.95
2023-04-03T00:26:10.346Z,2.93
2023-04-03T00:27:10.404Z,2.92
2023-04-03T00:28:10.376Z,2.92
2023-04-03T00:29:10.407Z,2.93
2023-04-03T00:30:10.424Z,2.92
2023-04-03T00:31:10.506Z,2.87
2023-04-03T00:32:10.484Z,2.85
2023-04-03T00:33:10.477Z,2.86
2023-04-03T00:34:10.492Z,2.87
2023-04-03T00:35:10.521Z,2.89
2023-04-03T00:36:10.602Z,2.89
2023-04-03T00:37:10.588Z,2.87
2023-04-03T00:38:10.561Z,2.87
2023-04-03T00:39:10.577Z,2.85
2023-04-03T00:40:10.605Z,2.83
2023-04-03T00:41:10.617Z,2.82
2023-04-03T00:42:10.659Z,2.80
2023-04-03T00:43:10.653Z,2.80
2023-04-03T00:44:10.672Z,2.83
2023-04-03T00:45:10.690Z,2.85
2023-04-03T00:46:10.721Z,2.83
2023-04-03T00:47:10.750Z,2.83
2023-04-03T00:48:10.733Z,2.82
2023-04-03T00:49:10.747Z,2.80
2023-04-03T00:50:10.771Z,2.82
2023-04-03T00:51:10.786Z,2.83
2023-04-03T00:52:10.825Z,2.80
2023-04-03T00:53:10.835Z,2.79
2023-04-03T00:54:10.850Z,2.79
2023-04-03T00:55:10.859Z,2.80
2023-04-03T00:56:10.877Z,2.80
2023-04-03T00:57:10.949Z,2.79
2023-04-03T00:58:10.899Z,2.79
2023-04-03T00:59:10.918Z,2.79
2023-04-03T01:00:10.934Z,2.80
2023-04-03T01:01:10.954Z,2.80
2023-04-03T01:02:10.989Z,2.83
2023-04-03T01:03:10.988Z,2.83
2023-04-03T01:04:11.049Z,2.82
2023-04-03T01:05:11.037Z,2.83
2023-04-03T01:06:11.043Z,2.79
2023-04-03T01:07:11.099Z,2.77
2023-04-03T01:08:11.087Z,2.79
2023-04-03T01:09:11.093Z,2.77
2023-04-03T01:10:11.153Z,2.79
2023-04-03T01:11:11.128Z,2.80
2023-04-03T01:12:11.186Z,2.79
2023-04-03T01:13:11.168Z,2.79
2023-04-03T01:14:11.187Z,2.82
2023-04-03T01:15:11.216Z,2.80
2023-04-03T01:16:11.297Z,2.82
2023-04-03T01:17:11.252Z,2.80
2023-04-03T01:18:11.249Z,2.75
2023-04-03T01:19:11.270Z,2.75
2023-04-03T01:20:11.294Z,2.77
2023-04-03T01:21:11.315Z,2.77
2023-04-03T01:22:11.361Z,2.75
2023-04-03T01:23:11.330Z,2.75
2023-04-03T01:24:11.357Z,2.72
2023-04-03T01:25:11.361Z,2.71
2023-04-03T01:26:11.393Z,2.71
2023-04-03T01:27:11.505Z,2.71
2023-04-03T01:28:11.438Z,2.72
2023-04-03T01:29:11.468Z,2.71
2023-04-03T01:30:11.468Z,2.71
2023-04-03T01:31:11.520Z,2.67
2023-04-03T01:32:11.529Z,2.67
2023-04-03T01:33:11.508Z,2.67
2023-04-03T01:34:11.538Z,2.67
2023-04-03T01:35:11.547Z,2.67
2023-04-03T01:36:11.607Z,2.67
2023-04-03T01:37:11.606Z,2.67
2023-04-03T01:38:11.608Z,2.67
2023-04-03T01:39:11.612Z,2.68
2023-04-03T01:40:11.652Z,2.69
2023-04-03T01:41:11.652Z,2.71
2023-04-03T01:42:11.705Z,2.72
2023-04-03T01:43:11.681Z,2.71
2023-04-03T01:44:11.704Z,2.68
2023-04-03T01:45:11.711Z,2.67
2023-04-03T01:46:11.914Z,2.65
2023-04-03T01:47:11.783Z,2.67
2023-04-03T01:48:11.776Z,2.67
2023-04-03T01:49:11.804Z,2.64
2023-04-03T01:50:11.813Z,2.65
2023-04-03T01:51:11.828Z,2.67
2023-04-03T01:52:11.883Z,2.65
2023-04-03T01:53:11.870Z,2.65
2023-04-03T01:54:11.890Z,2.67
2023-04-03T01:55:11.904Z,2.68
2023-04-03T01:56:11.925Z,2.68
2023-04-03T01:57:12.015Z,2.65
2023-04-03T01:58:11.974Z,2.64
2023-04-03T01:59:11.986Z,2.67
2023-04-03T02:00:12.009Z,2.67
2023-04-03T02:01:12.054Z,2.65
2023-04-03T02:02:12.050Z,2.65
2023-04-03T02:03:12.065Z,2.65
2023-04-03T02:04:12.154Z,2.67
2023-04-03T02:05:12.078Z,2.67
2023-04-03T02:06:12.882Z,2.65
2023-04-03T02:07:12.142Z,2.64
2023-04-03T02:08:12.161Z,2.65
2023-04-03T02:09:12.180Z,2.65
2023-04-03T02:10:12.187Z,2.67
2023-04-03T02:11:12.190Z,2.71
2023-04-03T02:12:12.249Z,2.68
2023-04-03T02:13:12.228Z,2.68
2023-04-03T02:14:12.253Z,2.68
2023-04-03T02:15:12.259Z,2.69
2023-04-03T02:16:12.419Z,2.69
2023-04-03T02:17:12.312Z,2.69
2023-04-03T02:18:12.323Z,2.72
2023-04-03T02:19:12.345Z,2.74
2023-04-03T02:20:12.362Z,2.74
2023-04-03T02:21:12.374Z,2.71
2023-04-03T02:22:12.415Z,2.71
2023-04-03T02:23:12.394Z,2.68
2023-04-03T02:24:12.415Z,2.68
2023-04-03T02:25:12.439Z,2.68
2023-04-03T02:26:12.470Z,2.69
2023-04-03T02:27:12.499Z,2.72
2023-04-03T02:28:12.482Z,2.69
2023-04-03T02:29:12.507Z,2.71
2023-04-03T02:30:12.508Z,2.69
2023-04-03T02:31:12.561Z,2.69
2023-04-03T02:32:12.574Z,2.71
2023-04-03T02:33:12.554Z,2.77
2023-04-03T02:34:12.568Z,2.75
2023-04-03T02:35:12.595Z,2.72
2023-04-03T02:36:12.602Z,2.69
2023-04-03T02:37:12.651Z,2.71
2023-04-03T02:38:12.655Z,2.72
2023-04-03T02:39:12.659Z,2.69
2023-04-03T02:40:12.675Z,2.69
2023-04-03T02:41:12.695Z,2.71
2023-04-03T02:42:12.730Z,2.69
2023-04-03T02:43:12.738Z,2.68
2023-04-03T02:44:12.736Z,2.75
2023-04-03T02:45:12.771Z,2.75
2023-04-03T02:46:12.798Z,2.72
2023-04-03T02:47:12.818Z,2.71
2023-04-03T02:48:12.805Z,2.68
2023-04-03T02:49:12.826Z,2.68
2023-04-03T02:50:12.838Z,2.67
2023-04-03T02:51:12.860Z,2.68
2023-04-03T02:52:12.903Z,2.67
2023-04-03T02:53:12.914Z,2.65
2023-04-03T02:54:12.910Z,2.68
2023-04-03T02:55:12.933Z,2.68
2023-04-03T02:56:12.952Z,2.69
2023-04-03T02:57:13.038Z,2.71
2023-04-03T02:58:12.980Z,2.68
2023-04-03T02:59:13.005Z,2.69
2023-04-03T03:00:13.029Z,2.69
2023-04-03T03:01:13.062Z,2.67
2023-04-03T03:02:13.099Z,2.62
2023-04-03T03:03:13.073Z,2.61
2023-04-03T03:04:13.136Z,2.64
2023-04-03T03:05:13.148Z,2.61
2023-04-03T03:06:13.128Z,2.62
2023-04-03T03:07:13.183Z,2.64
2023-04-03T03:08:13.165Z,2.62
2023-04-03T03:09:13.184Z,2.62
2023-04-03T03:10:13.201Z,2.64
2023-04-03T03:11:13.217Z,2.65
2023-04-03T03:12:13.249Z,2.65
2023-04-03T03:13:13.247Z,2.65
2023-04-03T03:14:13.261Z,2.62
2023-04-03T03:15:13.296Z,2.62
2023-04-03T03:16:13.360Z,2.65
2023-04-03T03:17:13.327Z,2.67
2023-04-03T03:18:13.317Z,2.64
2023-04-03T03:19:13.340Z,2.57
2023-04-03T03:20:13.352Z,2.57
2023-04-03T03:21:13.371Z,2.60
2023-04-03T03:22:13.418Z,2.60
2023-04-03T03:23:13.409Z,2.61
2023-04-03T03:24:13.419Z,2.57
2023-04-03T03:25:13.443Z,2.56
2023-04-03T03:26:13.458Z,2.57
2023-04-03T03:27:13.514Z,2.61
2023-04-03T03:28:13.497Z,2.64
2023-04-03T03:29:13.538Z,2.62
2023-04-03T03:30:13.557Z,2.60
2023-04-03T03:31:13.603Z,2.60
2023-04-03T03:32:13.594Z,2.60
2023-04-03T03:33:13.593Z,2.60
2023-04-03T03:34:13.596Z,2.57
2023-04-03T03:35:13.622Z,2.56
2023-04-03T03:36:13.665Z,2.62
2023-04-03T03:37:13.681Z,2.62
2023-04-03T03:38:13.660Z,2.61
2023-04-03T03:39:13.684Z,2.64
2023-04-03T03:40:13.706Z,2.65
2023-04-03T03:41:13.710Z,2.64
2023-04-03T03:42:13.754Z,2.60
2023-04-03T03:43:13.748Z,2.60
2023-04-03T03:44:15.327Z,2.57
2023-04-03T03:45:13.808Z,2.56
2023-04-03T03:46:13.809Z,2.54
2023-04-03T03:47:13.840Z,2.53
2023-04-03T03:48:13.824Z,2.56
2023-04-03T03:49:13.847Z,2.56
2023-04-03T03:50:13.870Z,2.56
2023-04-03T03:51:13.881Z,2.60
2023-04-03T03:52:13.928Z,2.60
2023-04-03T03:53:13.921Z,2.60
2023-04-03T03:54:13.936Z,2.60
2023-04-03T03:55:13.977Z,2.61
2023-04-03T03:56:13.982Z,2.61
2023-04-03T03:57:14.083Z,2.61
2023-04-03T03:58:14.023Z,2.60
2023-04-03T03:59:14.032Z,2.57
2023-04-03T04:00:14.051Z,2.54
2023-04-03T04:01:14.063Z,2.54
2023-04-03T04:02:14.130Z,2.54
2023-04-03T04:03:14.240Z,2.57
2023-04-03T04:04:14.150Z,2.61
2023-04-03T04:05:14.145Z,2.62
2023-04-03T04:06:14.160Z,2.61
2023-04-03T04:07:14.210Z,2.60
2023-04-03T04:08:14.182Z,2.56
2023-04-03T04:09:14.230Z,2.56
2023-04-03T04:10:14.218Z,2.56
2023-04-03T04:11:14.226Z,2.56
2023-04-03T04:12:14.277Z,2.56
2023-04-03T04:13:14.263Z,2.54
2023-04-03T04:14:14.285Z,2.53
2023-04-03T04:15:14.310Z,2.53
2023-04-03T04:16:14.341Z,2.53
2023-04-03T04:17:14.378Z,2.53
2023-04-03T04:18:14.349Z,2.51
2023-04-03T04:19:14.381Z,2.50
2023-04-03T04:20:14.374Z,2.51
2023-04-03T04:21:14.400Z,2.50
2023-04-03T04:22:14.435Z,2.49
2023-04-03T04:23:14.433Z,2.50
2023-04-03T04:24:14.445Z,2.51
2023-04-03T04:25:14.476Z,2.50
2023-04-03T04:26:14.490Z,2.50
2023-04-03T04:27:14.535Z,2.51
2023-04-03T04:28:14.536Z,2.51
2023-04-03T04:29:14.559Z,2.53
2023-04-03T04:30:14.571Z,2.51
2023-04-03T04:31:14.623Z,2.50
2023-04-03T04:32:14.648Z,2.47
2023-04-03T04:33:14.633Z,2.49
2023-04-03T04:34:14.658Z,2.49
2023-04-03T04:35:16.772Z,2.46
2023-04-03T04:36:14.756Z,2.44
2023-04-03T04:37:14.741Z,2.43
2023-04-03T04:38:14.715Z,2.43
2023-04-03T04:39:14.741Z,2.44
2023-04-03T04:40:14.751Z,2.47
2023-04-03T04:41:14.760Z,2.47
2023-04-03T04:42:16.712Z,2.47
2023-04-03T04:43:14.794Z,2.46
2023-04-03T04:44:14.823Z,2.46
2023-04-03T04:45:14.835Z,2.43
2023-04-03T04:46:14.918Z,2.44
2023-04-03T04:47:14.893Z,2.46
2023-04-03T04:48:14.873Z,2.44
2023-04-03T04:49:14.890Z,2.47
2023-04-03T04:50:14.918Z,2.44
2023-04-03T04:51:14.945Z,2.44
2023-04-03T04:52:14.978Z,2.44
2023-04-03T04:53:14.985Z,2.44
2023-04-03T04:54:15.002Z,2.43
2023-04-03T04:55:15.065Z,2.43
2023-04-03T04:56:15.034Z,2.44
2023-04-03T04:57:15.083Z,2.46
2023-04-03T04:58:15.071Z,2.46
2023-04-03T04:59:15.078Z,2.44
2023-04-03T05:00:15.139Z,2.42
2023-04-03T05:01:15.153Z,2.44
2023-04-03T05:02:15.168Z,2.46
2023-04-03T05:03:15.162Z,2.44
2023-04-03T05:04:15.304Z,2.44
2023-04-03T05:05:15.266Z,2.43
2023-04-03T05:06:15.249Z,2.44
2023-04-03T05:07:15.267Z,2.46
2023-04-03T05:08:15.233Z,2.44
2023-04-03T05:09:15.257Z,2.47
2023-04-03T05:10:15.274Z,2.44
2023-04-03T05:11:15.285Z,2.47
2023-04-03T05:12:15.314Z,2.47
2023-04-03T05:13:15.371Z,2.46
2023-04-03T05:14:15.334Z,2.46
2023-04-03T05:15:15.345Z,2.44
2023-04-03T05:16:15.384Z,2.47
2023-04-03T05:17:15.427Z,2.46
2023-04-03T05:18:15.404Z,2.44
2023-04-03T05:19:15.424Z,2.39
2023-04-03T05:20:15.443Z,2.39
2023-04-03T05:21:15.554Z,2.43
2023-04-03T05:22:15.541Z,2.43
2023-04-03T05:23:15.517Z,2.46
2023-04-03T05:24:15.525Z,2.47
2023-04-03T05:25:15.534Z,2.47
2023-04-03T05:26:15.553Z,2.51
2023-04-03T05:27:15.605Z,2.51
2023-04-03T05:28:15.575Z,2.49
2023-04-03T05:29:15.609Z,2.49
2023-04-03T05:30:15.610Z,2.49
2023-04-03T05:31:15.657Z,2.44
2023-04-03T05:32:15.675Z,2.43
2023-04-03T05:33:15.664Z,2.44
2023-04-03T05:34:15.689Z,2.49
2023-04-03T05:35:15.698Z,2.46
2023-04-03T05:36:15.760Z,2.43
2023-04-03T05:37:15.769Z,2.44
2023-04-03T05:38:15.748Z,2.47
2023-04-03T05:39:15.767Z,2.44
2023-04-03T05:40:18.135Z,2.44
2023-04-03T05:41:15.802Z,2.44
2023-04-03T05:42:15.836Z,2.44
2023-04-03T05:43:15.854Z,2.43
2023-04-03T05:44:15.864Z,2.42
2023-04-03T05:45:15.890Z,2.43
2023-04-03T05:46:15.933Z,2.44
2023-04-03T05:47:15.945Z,2.46
2023-04-03T05:48:15.970Z,2.44
2023-04-03T05:49:15.960Z,2.44
2023-04-03T05:50:15.971Z,2.47
2023-04-03T05:51:15.974Z,2.49
2023-04-03T05:52:16.030Z,2.46
2023-04-03T05:53:16.021Z,2.47
2023-04-03T05:54:16.040Z,2.49
2023-04-03T05:55:16.052Z,2.44
2023-04-03T05:56:16.074Z,2.44
2023-04-03T05:57:16.134Z,2.43
2023-04-03T05:58:16.096Z,2.44
2023-04-03T05:59:16.113Z,2.46
2023-04-03T06:00:16.136Z,2.50
2023-04-03T06:01:16.154Z,2.49
2023-04-03T06:02:16.210Z,2.47
2023-04-03T06:03:16.322Z,2.47
2023-04-03T06:04:16.345Z,2.50
2023-04-03T06:05:16.213Z,2.56
2023-04-03T06:06:16.234Z,2.51
2023-04-03T06:07:16.280Z,2.54
2023-04-03T06:08:16.277Z,2.53
2023-04-03T06:09:16.289Z,2.51
2023-04-03T06:10:16.305Z,2.50
2023-04-03T06:11:16.319Z,2.53
2023-04-03T06:12:16.361Z,2.53
2023-04-03T06:13:16.361Z,2.53
2023-04-03T06:14:16.380Z,2.51
2023-04-03T06:15:16.386Z,2.50
2023-04-03T06:16:16.400Z,2.53
2023-04-03T06:17:16.505Z,2.54
2023-04-03T06:18:16.429Z,2.60
2023-04-03T06:19:16.632Z,2.61
2023-04-03T06:20:16.471Z,2.62
2023-04-03T06:21:16.486Z,2.60
2023-04-03T06:22:16.535Z,2.61
2023-04-03T06:23:16.521Z,2.62
2023-04-03T06:24:16.539Z,2.68
2023-04-03T06:25:16.569Z,2.71
2023-04-03T06:26:16.571Z,2.74
2023-04-03T06:27:16.610Z,2.69
2023-04-03T06:28:16.599Z,2.74
2023-04-03T06:29:16.644Z,2.74
2023-04-03T06:30:16.641Z,2.77
2023-04-03T06:31:16.704Z,2.75
2023-04-03T06:32:16.690Z,2.71
2023-04-03T06:33:16.689Z,2.67
2023-04-03T06:34:16.895Z,2.64
2023-04-03T06:35:16.738Z,2.64
2023-04-03T06:36:16.749Z,2.72
2023-04-03T06:37:16.805Z,2.75
2023-04-03T06:38:16.782Z,2.77
2023-04-03T06:39:16.817Z,2.77
2023-04-03T06:40:16.815Z,2.80
2023-04-03T06:41:16.837Z,2.79
2023-04-03T06:42:16.875Z,2.75
2023-04-03T06:43:16.877Z,2.77
2023-04-03T06:44:16.884Z,2.80
2023-04-03T06:45:16.903Z,2.85
2023-04-03T06:46:16.964Z,2.90
2023-04-03T06:47:16.980Z,2.90
2023-04-03T06:48:16.967Z,2.93
2023-04-03T06:49:16.979Z,2.92
2023-04-03T06:50:17.017Z,2.90
2023-04-03T06:51:17.022Z,2.85
2023-04-03T06:52:17.067Z,2.86
2023-04-03T06:53:17.053Z,2.86
2023-04-03T06:54:17.092Z,2.86
2023-04-03T06:55:17.083Z,2.90
2023-04-03T06:56:17.088Z,2.97
2023-04-03T06:57:17.146Z,3.05
2023-04-03T06:58:17.129Z,3.07
2023-04-03T06:59:17.145Z,3.10
2023-04-03T07:00:17.173Z,3.10
2023-04-03T07:01:17.227Z,3.13
2023-04-03T07:02:17.232Z,3.14
2023-04-03T07:03:17.258Z,3.10
2023-04-03T07:04:17.253Z,3.03
2023-04-03T07:05:17.286Z,2.95
2023-04-03T07:06:17.284Z,2.95
2023-04-03T07:07:17.319Z,3.01
2023-04-03T07:08:17.321Z,3.10
2023-04-03T07:09:17.325Z,3.11
2023-04-03T07:10:17.352Z,3.16
2023-04-03T07:11:17.361Z,3.13
2023-04-03T07:12:17.415Z,3.14
2023-04-03T07:13:17.398Z,3.18
2023-04-03T07:14:17.431Z,3.01
2023-04-03T07:15:17.431Z,3.05
2023-04-03T07:16:17.551Z,3.08
2023-04-03T07:17:17.503Z,3.08
2023-04-03T07:18:17.498Z,3.13
2023-04-03T07:19:17.509Z,3.11
2023-04-03T07:20:17.529Z,3.18
2023-04-03T07:21:17.547Z,3.29
2023-04-03T07:22:17.601Z,3.37
2023-04-03T07:23:17.585Z,3.40
2023-04-03T07:24:17.613Z,3.48
2023-04-03T07:25:17.642Z,3.50
2023-04-03T07:26:17.642Z,3.51
2023-04-03T07:27:17.704Z,3.45
2023-04-03T07:28:17.686Z,3.37
2023-04-03T07:29:17.697Z,3.26
2023-04-03T07:30:17.720Z,3.31
2023-04-03T07:31:17.789Z,3.28
2023-04-03T07:32:17.795Z,3.25
2023-04-03T07:33:17.777Z,3.22
2023-04-03T07:34:17.792Z,3.22
2023-04-03T07:35:17.802Z,3.29
2023-04-03T07:36:17.833Z,3.40
2023-04-03T07:37:17.863Z,3.44
2023-04-03T07:38:17.883Z,3.51
2023-04-03T07:39:17.891Z,3.53
2023-04-03T07:40:19.078Z,3.56
2023-04-03T07:41:17.904Z,3.56
2023-04-03T07:42:17.958Z,3.53
2023-04-03T07:43:17.945Z,3.42
2023-04-03T07:44:17.959Z,3.37
2023-04-03T07:45:17.992Z,3.48
2023-04-03T07:46:18.036Z,3.63
2023-04-03T07:47:18.050Z,3.65
2023-04-03T07:48:18.040Z,3.62
2023-04-03T07:49:18.046Z,3.68
2023-04-03T07:50:18.068Z,3.69
2023-04-03T07:51:18.087Z,3.60
2023-04-03T07:52:18.144Z,3.60
2023-04-03T07:53:18.140Z,3.55
2023-04-03T07:54:18.153Z,3.58
2023-04-03T07:55:18.153Z,3.56
2023-04-03T07:56:18.201Z,3.62
2023-04-03T07:57:18.258Z,3.73
2023-04-03T07:58:18.210Z,3.84
2023-04-03T07:59:18.245Z,3.84
2023-04-03T08:00:18.245Z,3.80
2023-04-03T08:01:18.278Z,3.76
2023-04-03T08:02:18.314Z,3.66
2023-04-03T08:03:18.386Z,3.66
2023-04-03T08:04:18.429Z,3.78
2023-04-03T08:05:18.333Z,3.94
2023-04-03T08:06:21.657Z,3.92
2023-04-03T08:07:18.406Z,4.02
2023-04-03T08:08:20.070Z,4.13
2023-04-03T08:09:18.417Z,4.08
2023-04-03T08:10:18.454Z,4.01
2023-04-03T08:11:18.445Z,3.94
2023-04-03T08:12:18.496Z,3.96
2023-04-03T08:13:18.474Z,3.95
2023-04-03T08:14:18.496Z,3.95
2023-04-03T08:15:18.510Z,3.83
2023-04-03T08:16:18.623Z,3.73
2023-04-03T08:17:18.583Z,3.80
2023-04-03T08:18:18.573Z,3.91
2023-04-03T08:19:25.414Z,3.99
2023-04-03T08:20:18.617Z,3.96
2023-04-03T08:21:18.626Z,3.81
2023-04-03T08:22:18.668Z,3.88
2023-04-03T08:23:20.030Z,3.87
2023-04-03T08:24:18.672Z,3.77
2023-04-03T08:25:18.712Z,3.88
2023-04-03T08:26:18.717Z,3.96
2023-04-03T08:27:18.756Z,4.01
2023-04-03T08:28:18.741Z,4.05
2023-04-03T08:29:18.754Z,4.13
2023-04-03T08:30:18.790Z,4.19
2023-04-03T08:31:18.850Z,4.24
2023-04-03T08:32:18.850Z,4.30
2023-04-03T08:33:18.847Z,4.40
2023-04-03T08:34:18.875Z,4.38
2023-04-03T08:35:18.877Z,4.32
2023-04-03T08:36:18.950Z,4.23
2023-04-03T08:37:18.967Z,4.13
2023-04-03T08:38:18.943Z,4.16
2023-04-03T08:39:18.954Z,4.28
2023-04-03T08:40:18.981Z,4.35
2023-04-03T08:41:18.998Z,4.45
2023-04-03T08:42:19.028Z,4.59
2023-04-03T08:43:19.021Z,4.67
2023-04-03T08:44:19.042Z,4.70
2023-04-03T08:45:19.049Z,4.52
2023-04-03T08:46:19.135Z,4.48
2023-04-03T08:47:19.111Z,4.44
2023-04-03T08:48:19.115Z,4.35
2023-04-03T08:49:19.159Z,4.48
2023-04-03T08:50:19.143Z,4.56
2023-04-03T08:51:19.635Z,4.53
2023-04-03T08:52:19.209Z,4.50
2023-04-03T08:53:19.207Z,4.48
2023-04-03T08:54:19.215Z,4.42
2023-04-03T08:55:19.231Z,4.52
2023-04-03T08:56:19.249Z,4.56
2023-04-03T08:57:19.295Z,4.56
2023-04-03T08:58:19.280Z,4.60
2023-04-03T08:59:19.286Z,4.66
2023-04-03T09:00:19.306Z,4.56
2023-04-03T09:01:19.372Z,4.41
2023-04-03T09:02:19.381Z,4.38
2023-04-03T09:03:19.546Z,4.23
2023-04-03T09:04:19.486Z,4.32
2023-04-03T09:05:19.377Z,4.42
2023-04-03T09:06:19.410Z,4.45
2023-04-03T09:07:19.449Z,4.53
2023-04-03T09:08:19.456Z,4.59
2023-04-03T09:09:19.451Z,4.45
2023-04-03T09:10:19.491Z,4.44
2023-04-03T09:11:19.485Z,4.44
2023-04-03T09:12:19.530Z,4.38
2023-04-03T09:13:19.519Z,4.20
2023-04-03T09:14:19.538Z,4.26
2023-04-03T09:15:27.878Z,4.37
2023-04-03T09:16:19.621Z,4.40
2023-04-03T09:17:19.615Z,4.38
2023-04-03T09:18:19.606Z,4.35
2023-04-03T09:19:19.652Z,4.38
2023-04-03T09:20:20.977Z,4.45
2023-04-03T09:21:19.650Z,4.30
2023-04-03T09:22:19.696Z,4.32
2023-04-03T09:23:19.686Z,4.45
2023-04-03T09:24:19.737Z,4.60
2023-04-03T09:25:19.720Z,4.63
2023-04-03T09:26:19.740Z,4.63
2023-04-03T09:27:19.854Z,4.68
2023-04-03T09:28:19.773Z,4.70
2023-04-03T09:29:19.788Z,4.60
2023-04-03T09:30:19.810Z,4.59
2023-04-03T09:31:19.880Z,4.58
2023-04-03T09:32:19.864Z,4.60
2023-04-03T09:33:19.858Z,4.62
2023-04-03T09:34:19.880Z,4.56
2023-04-03T09:35:23.358Z,4.42
2023-04-03T09:36:19.984Z,4.32
2023-04-03T09:37:19.950Z,4.26
2023-04-03T09:38:19.972Z,4.34
2023-04-03T09:39:19.987Z,4.30
2023-04-03T09:40:19.985Z,4.32
2023-04-03T09:41:20.002Z,4.31
2023-04-03T09:42:20.066Z,4.23
2023-04-03T09:43:20.041Z,4.31
2023-04-03T09:44:20.062Z,4.38
2023-04-03T09:45:20.075Z,4.49
2023-04-03T09:46:21.074Z,4.52
2023-04-03T09:47:20.153Z,4.55
2023-04-03T09:48:20.215Z,4.52
2023-04-03T09:49:20.157Z,4.48
2023-04-03T09:50:20.193Z,4.34
2023-04-03T09:51:20.180Z,4.26
2023-04-03T09:52:20.221Z,4.26
2023-04-03T09:53:20.211Z,4.30
2023-04-03T09:54:20.250Z,4.30
2023-04-03T09:55:20.247Z,4.32
2023-04-03T09:56:20.271Z,4.32
2023-04-03T09:57:20.308Z,4.40
2023-04-03T09:58:20.297Z,4.50
2023-04-03T09:59:20.315Z,4.56
2023-04-03T10:00:20.342Z,4.70
2023-04-03T10:01:20.360Z,4.80
2023-04-03T10:02:20.403Z,4.71
2023-04-03T10:03:20.383Z,4.58
2023-04-03T10:04:20.446Z,4.50
2023-04-03T10:05:20.439Z,4.45
2023-04-03T10:06:20.445Z,4.44
2023-04-03T10:07:20.480Z,4.49
2023-04-03T10:08:20.457Z,4.59
2023-04-03T10:09:20.478Z,4.67
2023-04-03T10:10:20.499Z,4.74
2023-04-03T10:11:20.519Z,4.68
2023-04-03T10:12:20.568Z,4.82
2023-04-03T10:13:21.596Z,4.94
2023-04-03T10:14:20.585Z,4.86
2023-04-03T10:15:21.141Z,4.92
2023-04-03T10:16:20.635Z,4.97
2023-04-03T10:17:20.649Z,5.12
2023-04-03T10:18:24.475Z,5.21
2023-04-03T10:19:20.646Z,5.28
2023-04-03T10:20:22.876Z,5.23
2023-04-03T10:21:27.227Z,5.33
2023-04-03T10:22:20.722Z,5.44
2023-04-03T10:23:20.712Z,5.48
2023-04-03T10:24:20.739Z,5.51
2023-04-03T10:25:20.752Z,5.47
2023-04-03T10:26:20.767Z,5.12
2023-04-03T10:27:20.809Z,5.14
2023-04-03T10:28:20.835Z,5.15
2023-04-03T10:29:20.820Z,5.00
2023-04-03T10:30:20.832Z,4.92
2023-04-03T10:31:20.909Z,4.93
2023-04-03T10:32:20.925Z,4.93
2023-04-03T10:33:20.889Z,4.94
2023-04-03T10:34:20.911Z,4.92
2023-04-03T10:35:20.913Z,4.97
2023-04-03T10:36:20.935Z,4.92
2023-04-03T10:37:20.990Z,4.96
2023-04-03T10:38:20.973Z,4.93
2023-04-03T10:39:20.983Z,4.99
2023-04-03T10:40:21.009Z,5.10
2023-04-03T10:41:21.023Z,5.26
2023-04-03T10:42:21.081Z,5.32
2023-04-03T10:43:21.061Z,5.41
2023-04-03T10:44:21.078Z,5.51
2023-04-03T10:45:21.116Z,5.54
2023-04-03T10:46:21.143Z,5.23
2023-04-03T10:47:21.163Z,5.23
2023-04-03T10:48:21.160Z,5.18
2023-04-03T10:49:21.169Z,5.36
2023-04-03T10:50:21.181Z,5.46
2023-04-03T10:51:21.196Z,5.38
2023-04-03T10:52:21.261Z,5.26
2023-04-03T10:53:21.241Z,5.33
2023-04-03T10:54:21.260Z,5.38
2023-04-03T10:55:21.287Z,5.35
2023-04-03T10:56:21.302Z,5.26
2023-04-03T10:57:21.370Z,5.14
2023-04-03T10:58:21.338Z,5.18
2023-04-03T10:59:21.347Z,5.35
2023-04-03T11:00:21.364Z,5.35
2023-04-03T11:01:21.446Z,5.11
2023-04-03T11:02:21.531Z,5.04
2023-04-03T11:03:21.556Z,5.05
2023-04-03T11:04:21.424Z,4.94
2023-04-03T11:05:21.454Z,5.05
2023-04-03T11:06:21.466Z,5.17
2023-04-03T11:07:21.514Z,5.23
2023-04-03T11:08:21.545Z,5.15
2023-04-03T11:09:21.517Z,5.08
2023-04-03T11:10:21.535Z,5.04
2023-04-03T11:11:21.555Z,5.02
2023-04-03T11:12:21.598Z,4.78
2023-04-03T11:13:21.589Z,4.80
2023-04-03T11:14:21.612Z,4.89
2023-04-03T11:15:21.724Z,4.97
2023-04-03T11:16:21.649Z,5.10
2023-04-03T11:17:21.675Z,5.08
2023-04-03T11:18:21.667Z,4.90
2023-04-03T11:19:21.695Z,4.93
2023-04-03T11:20:21.701Z,4.90
2023-04-03T11:21:21.726Z,4.92
2023-04-03T11:22:21.761Z,4.93
2023-04-03T11:23:21.760Z,4.97
2023-04-03T11:24:21.771Z,5.05
2023-04-03T11:25:21.797Z,5.15
2023-04-03T11:26:22.084Z,5.23
2023-04-03T11:27:21.861Z,5.21
2023-04-03T11:28:21.838Z,5.00
2023-04-03T11:29:34.461Z,4.82
2023-04-03T11:30:21.901Z,4.68
2023-04-03T11:31:21.959Z,4.71
2023-04-03T11:32:21.953Z,4.80
2023-04-03T11:33:21.940Z,4.99
2023-04-03T11:34:21.959Z,5.15
2023-04-03T11:35:22.006Z,5.26
2023-04-03T11:36:29.160Z,5.26
2023-04-03T11:37:22.026Z,5.26
2023-04-03T11:38:22.014Z,5.23
2023-04-03T11:39:22.065Z,5.38
2023-04-03T11:40:22.041Z,5.44
2023-04-03T11:41:22.056Z,5.46
2023-04-03T11:42:22.146Z,5.32
2023-04-03T11:43:22.096Z,5.32
2023-04-03T11:44:22.104Z,5.17
2023-04-03T11:45:22.133Z,5.14
2023-04-03T11:46:22.141Z,5.33
2023-04-03T11:47:22.213Z,5.44
2023-04-03T11:48:25.099Z,5.47
2023-04-03T11:49:22.188Z,5.56
2023-04-03T11:50:22.201Z,5.29
2023-04-03T11:51:22.239Z,5.18
2023-04-03T11:52:22.267Z,5.23
2023-04-03T11:53:22.255Z,5.21
2023-04-03T11:54:22.970Z,5.21
2023-04-03T11:55:22.291Z,5.25
2023-04-03T11:56:22.305Z,5.26
2023-04-03T11:57:22.385Z,5.11
2023-04-03T11:58:22.367Z,5.21
2023-04-03T11:59:22.373Z,5.25
2023-04-03T12:00:22.364Z,5.26
2023-04-03T12:01:22.393Z,5.39
2023-04-03T12:02:22.540Z,5.47
2023-04-03T12:03:22.538Z,5.64
2023-04-03T12:04:22.494Z,5.69
2023-04-03T12:05:22.452Z,5.73
2023-04-03T12:06:22.471Z,5.84
2023-04-03T12:07:22.517Z,5.94
2023-04-03T12:08:22.489Z,6.01
2023-04-03T12:09:22.509Z,5.97
2023-04-03T12:10:31.752Z,5.57
2023-04-03T12:11:22.552Z,5.57
2023-04-03T12:12:22.588Z,5.66
2023-04-03T12:13:22.573Z,5.84
2023-04-03T12:14:22.583Z,5.89
2023-04-03T12:15:22.655Z,5.72
2023-04-03T12:16:22.666Z,5.76
2023-04-03T12:17:22.664Z,5.64
2023-04-03T12:18:22.641Z,5.62
2023-04-03T12:19:26.626Z,5.73
2023-04-03T12:20:22.675Z,5.93
2023-04-03T12:21:22.879Z,6.12
2023-04-03T12:22:22.770Z,6.44
2023-04-03T12:23:22.739Z,6.64
2023-04-03T12:24:22.747Z,6.62
2023-04-03T12:25:22.779Z,6.52
2023-04-03T12:26:22.900Z,6.38
2023-04-03T12:27:22.851Z,6.28
2023-04-03T12:28:22.817Z,6.26
2023-04-03T12:29:22.836Z,6.02
2023-04-03T12:30:22.853Z,6.12
2023-04-03T12:31:22.907Z,6.12
2023-04-03T12:32:23.056Z,6.22
2023-04-03T12:33:22.954Z,6.22
2023-04-03T12:34:22.936Z,6.22
2023-04-03T12:35:22.964Z,6.19
2023-04-03T12:36:23.038Z,6.22
2023-04-03T12:37:22.995Z,6.28
2023-04-03T12:38:23.025Z,6.33
2023-04-03T12:39:23.020Z,6.28
2023-04-03T12:40:23.036Z,6.14
2023-04-03T12:41:23.060Z,6.30
2023-04-03T12:42:23.077Z,6.14
2023-04-03T12:43:23.130Z,6.04
2023-04-03T12:44:23.107Z,6.16
2023-04-03T12:45:23.134Z,6.26
2023-04-03T12:46:23.211Z,6.26
2023-04-03T12:47:23.243Z,6.28
2023-04-03T12:48:23.205Z,6.28
2023-04-03T12:49:23.196Z,6.33
2023-04-03T12:50:23.210Z,6.14
2023-04-03T12:51:23.240Z,6.14
2023-04-03T12:52:23.255Z,6.04
2023-04-03T12:53:23.286Z,6.09
2023-04-03T12:54:23.282Z,6.16
2023-04-03T12:55:23.298Z,6.09
2023-04-03T12:56:23.316Z,6.24
2023-04-03T12:57:23.381Z,6.63
2023-04-03T12:58:24.482Z,6.82
2023-04-03T12:59:23.380Z,7.06
2023-04-03T13:00:23.386Z,7.18
2023-04-03T13:01:23.509Z,7.18
2023-04-03T13:02:23.469Z,7.35
2023-04-03T13:03:23.566Z,7.13
2023-04-03T13:04:23.453Z,7.03
2023-04-03T13:05:23.474Z,6.72
2023-04-03T13:06:23.491Z,6.72
2023-04-03T13:07:23.511Z,6.74
2023-04-03T13:08:23.545Z,6.77
2023-04-03T13:09:23.616Z,6.70
2023-04-03T13:10:23.627Z,6.74
2023-04-03T13:11:23.589Z,6.84
2023-04-03T13:12:23.599Z,6.79
2023-04-03T13:13:23.642Z,6.85
2023-04-03T13:14:23.630Z,7.33
2023-04-03T13:15:23.664Z,7.82
2023-04-03T13:16:23.776Z,8.01
2023-04-03T13:17:23.699Z,7.80
2023-04-03T13:18:23.731Z,7.45